createdAt,value
2022-07-29T00:03:33.198Z,2.6
2022-07-29T00:08:37.730Z,2.6
2022-07-29T00:13:34.156Z,2.6
2022-07-29T00:29:32.208Z,2.7
2022-07-29T00:38:34.547Z,2.5
2022-07-29T00:43:33.569Z,2.4
2022-07-29T00:48:36.540Z,2.4
2022-07-29T00:58:33.215Z,2.3
2022-07-29T01:03:33.392Z,2.3
2022-07-29T01:08:33.157Z,2.3
2022-07-29T01:13:33.649Z,2.3
2022-07-29T01:18:36.209Z,2.2
2022-07-29T01:23:33.199Z,2.2
2022-07-29T01:28:34.239Z,2.2
2022-07-29T01:33:33.244Z,2.1
2022-07-29T01:38:33.255Z,2.1
2022-07-29T01:43:33.188Z,2.1
2022-07-29T01:48:33.312Z,2.1
2022-07-29T01:53:39.258Z,2.1
2022-07-29T01:58:33.293Z,2.1
2022-07-29T02:03:33.326Z,2.1
2022-07-29T02:08:37.727Z,2.1
2022-07-29T02:13:33.248Z,2.1
2022-07-29T02:18:33.319Z,2.1
2022-07-29T02:28:33.233Z,2.2
2022-07-29T02:33:33.231Z,2.3
2022-07-29T02:38:33.240Z,2.2
2022-07-29T02:43:33.324Z,2.2
2022-07-29T02:48:43.918Z,2.2
2022-07-29T02:53:33.250Z,2.2
2022-07-29T02:58:36.535Z,2.2
2022-07-29T03:03:35.187Z,2.3
2022-07-29T03:08:33.205Z,2.3
2022-07-29T03:13:33.262Z,2.3
2022-07-29T03:18:34.292Z,2.4
2022-07-29T03:23:37.226Z,2.4
2022-07-29T03:28:33.253Z,2.5
2022-07-29T03:33:33.253Z,2.5
2022-07-29T03:38:33.215Z,2.5
2022-07-29T03:43:33.220Z,2.5
2022-07-29T03:48:33.234Z,2.5
2022-07-29T03:53:33.279Z,2.4
2022-07-29T03:58:35.241Z,2.6
2022-07-29T04:03:33.403Z,2.3
2022-07-29T04:08:33.261Z,2.5
2022-07-29T04:13:34.216Z,2.5
2022-07-29T04:18:36.179Z,2.3
2022-07-29T04:23:45.878Z,2.3
2022-07-29T04:28:33.204Z,2.3
2022-07-29T04:33:33.193Z,2.3
2022-07-29T04:38:33.572Z,2.5
2022-07-29T04:43:37.215Z,2.3
2022-07-29T04:48:33.246Z,2.5
2022-07-29T04:53:33.211Z,2.5
2022-07-29T04:58:33.215Z,2.5
2022-07-29T05:03:33.202Z,2.5
2022-07-29T05:08:33.236Z,2.9
2022-07-29T05:13:45.547Z,3
2022-07-29T05:23:33.238Z,3.1
2022-07-29T05:28:33.219Z,3.1
2022-07-29T05:33:39.378Z,3.1
2022-07-29T05:38:33.203Z,3.1
2022-07-29T05:43:33.244Z,3.1
2022-07-29T05:53:33.216Z,3.1
2022-07-29T05:58:33.194Z,3.4
2022-07-29T06:03:36.246Z,3.4
2022-07-29T06:08:33.213Z,3.4
2022-07-29T06:18:33.237Z,3.1
2022-07-29T06:23:33.318Z,3.1
2022-07-29T06:28:33.245Z,3.1
2022-07-29T06:33:33.228Z,3
2022-07-29T06:38:40.435Z,3
2022-07-29T06:48:33.254Z,3
2022-07-29T06:53:33.233Z,3
2022-07-29T06:58:33.231Z,2.8
2022-07-29T07:03:33.258Z,3
2022-07-29T07:08:33.275Z,3
2022-07-29T07:13:33.263Z,3
2022-07-29T07:18:33.245Z,3
2022-07-29T07:23:33.323Z,2.9
2022-07-29T07:28:37.274Z,2.8
2022-07-29T07:33:33.272Z,2.9
2022-07-29T07:38:33.247Z,2.8
2022-07-29T07:43:36.253Z,2.8
2022-07-29T07:48:33.300Z,2.8
2022-07-29T07:53:34.254Z,2.8
2022-07-29T07:58:33.265Z,2.8
2022-07-29T08:03:33.292Z,2.8
2022-07-29T08:08:33.264Z,2.7
2022-07-29T08:13:33.325Z,2.7
2022-07-29T08:18:33.336Z,2.7
2022-07-29T08:23:45.436Z,2.6
2022-07-29T08:28:33.256Z,2.6
2022-07-29T08:33:33.306Z,2.6
2022-07-29T08:38:33.287Z,2.6
2022-07-29T08:43:35.918Z,2.5
2022-07-29T08:48:33.287Z,2.6
2022-07-29T08:53:33.249Z,2.5
2022-07-29T08:58:36.678Z,2.6
2022-07-29T09:03:33.322Z,2.5
2022-07-29T09:08:33.283Z,2.6
2022-07-29T09:13:33.344Z,2.5
2022-07-29T09:18:33.290Z,2.5
2022-07-29T09:23:38.631Z,2.4
2022-07-29T09:28:33.290Z,2.3
2022-07-29T09:33:33.413Z,2.3
2022-07-29T09:38:33.310Z,2.3
2022-07-29T09:48:33.282Z,2.1
2022-07-29T09:53:33.772Z,2.3
2022-07-29T09:58:33.355Z,2.3
2022-07-29T10:03:33.504Z,2.3
2022-07-29T10:08:33.409Z,2.3
2022-07-29T10:13:33.377Z,2.3
2022-07-29T10:28:33.420Z,2.2
2022-07-29T10:33:33.345Z,2.1
2022-07-29T10:38:33.384Z,2
2022-07-29T10:43:33.374Z,2
2022-07-29T10:48:33.417Z,2
2022-07-29T10:53:36.391Z,2
2022-07-29T11:03:34.842Z,2
2022-07-29T11:08:33.343Z,2
2022-07-29T11:13:41.395Z,2
2022-07-29T11:23:38.575Z,2
2022-07-29T11:28:33.343Z,2
2022-07-29T11:33:54.990Z,2
2022-07-29T11:38:41.591Z,2
2022-07-29T11:43:36.357Z,2
2022-07-29T11:53:34.379Z,1.9
2022-07-29T11:58:33.329Z,1.8
2022-07-29T12:03:37.435Z,1.8
2022-07-29T12:08:33.396Z,1.8
2022-07-29T12:13:39.411Z,1.8
2022-07-29T12:18:33.383Z,1.8
2022-07-29T12:23:36.420Z,1.8
2022-07-29T12:28:33.449Z,1.9
2022-07-29T12:33:34.374Z,1.9
2022-07-29T12:38:34.357Z,1.9
2022-07-29T12:43:33.415Z,1.9
2022-07-29T12:48:33.413Z,2
2022-07-29T12:53:33.408Z,2
2022-07-29T12:58:33.409Z,2
2022-07-29T13:03:36.389Z,2
2022-07-29T13:08:33.682Z,2.1
2022-07-29T13:13:33.456Z,2
2022-07-29T13:18:33.370Z,2
2022-07-29T13:23:39.517Z,2
2022-07-29T13:28:33.444Z,2.1
2022-07-29T13:33:33.390Z,2
2022-07-29T13:38:33.410Z,2
2022-07-29T13:43:33.432Z,2
2022-07-29T13:48:33.428Z,2.1
2022-07-29T13:53:35.498Z,2.2
2022-07-29T13:58:33.440Z,2.4
2022-07-29T14:03:33.441Z,2.6
2022-07-29T14:08:33.384Z,2.6
2022-07-29T14:13:33.701Z,2.6
2022-07-29T14:18:33.408Z,2.6
2022-07-29T14:23:33.400Z,2.6
2022-07-29T14:28:33.461Z,2.6
2022-07-29T14:33:33.460Z,2.1
2022-07-29T14:38:33.497Z,2.1
2022-07-29T14:43:36.450Z,2.1
2022-07-29T14:48:33.430Z,2
2022-07-29T14:53:33.550Z,1.9
2022-07-29T14:58:33.445Z,1.9
2022-07-29T15:03:36.468Z,1.9
2022-07-29T15:08:33.432Z,1.9
2022-07-29T15:13:33.492Z,1.8
2022-07-29T15:18:33.459Z,1.8
2022-07-29T15:23:33.441Z,1.9
2022-07-29T15:28:33.454Z,1.9
2022-07-29T15:33:33.463Z,1.9
2022-07-29T15:38:33.433Z,1.9
2022-07-29T15:43:33.529Z,2
2022-07-29T15:53:35.488Z,2
2022-07-29T15:58:33.478Z,2.4
2022-07-29T16:03:36.531Z,2.4
2022-07-29T16:08:33.458Z,2.4
2022-07-29T16:13:34.425Z,2.3
2022-07-29T16:18:33.489Z,2.3
2022-07-29T16:23:33.538Z,2.3
2022-07-29T16:28:33.373Z,2.3
2022-07-29T16:33:54.192Z,2.3
2022-07-29T16:38:33.669Z,2.5
2022-07-29T16:43:39.479Z,2.7
2022-07-29T16:48:38.458Z,3.3
2022-07-29T16:53:33.493Z,3.5
2022-07-29T16:58:33.554Z,4
2022-07-29T17:03:33.545Z,4.5
2022-07-29T17:08:33.568Z,4.5
2022-07-29T17:13:36.623Z,4.5
2022-07-29T17:18:39.652Z,4.5
2022-07-29T17:23:33.522Z,3.9
2022-07-29T17:28:33.515Z,3.9
2022-07-29T17:33:35.451Z,3.9
2022-07-29T17:38:33.555Z,3.4
2022-07-29T17:48:33.563Z,3.1
2022-07-29T17:53:33.604Z,3
2022-07-29T17:58:33.494Z,3.1
2022-07-29T18:03:33.542Z,3.1
2022-07-29T18:08:33.510Z,3.1
2022-07-29T18:13:33.614Z,3.1
2022-07-29T18:18:33.557Z,3.5
2022-07-29T18:23:33.550Z,3.6
2022-07-29T18:28:34.463Z,4.1
2022-07-29T18:33:33.558Z,4.2
2022-07-29T18:38:35.214Z,4.2
2022-07-29T18:43:33.617Z,4.2
2022-07-29T18:48:33.497Z,4.3
2022-07-29T18:53:37.559Z,4.6
2022-07-29T18:58:33.542Z,4.6
2022-07-29T19:03:40.708Z,4.6
2022-07-29T19:08:33.580Z,4.6
2022-07-29T19:13:38.557Z,4.6
2022-07-29T19:18:36.526Z,4.6
2022-07-29T19:28:36.018Z,4.3
2022-07-29T19:33:34.615Z,4.5
2022-07-29T19:38:33.738Z,4.7
2022-07-29T19:43:50.289Z,4.5
2022-07-29T19:48:33.586Z,4.8
2022-07-29T19:53:33.527Z,4.8
2022-07-29T19:58:35.616Z,4.8
2022-07-29T20:03:33.600Z,4.8
2022-07-29T20:08:33.601Z,4.7
2022-07-29T20:13:33.556Z,4.6
2022-07-29T20:18:33.575Z,4.7
2022-07-29T20:23:36.554Z,4.7
2022-07-29T20:28:33.533Z,4.6
2022-07-29T20:33:33.608Z,4.5
2022-07-29T20:38:33.741Z,4.3
2022-07-29T20:43:39.611Z,4.3
2022-07-29T20:48:33.589Z,4.1
2022-07-29T20:53:33.903Z,4.1
2022-07-29T20:58:33.605Z,4.1
2022-07-29T21:03:33.616Z,4.1
2022-07-29T21:08:33.635Z,4.1
2022-07-29T21:13:33.650Z,4.1
2022-07-29T21:18:34.642Z,4.1
2022-07-29T21:23:37.360Z,4.1
2022-07-29T21:28:33.817Z,4.5
2022-07-29T21:33:33.641Z,4.7
2022-07-29T21:43:33.572Z,4.8
2022-07-29T21:48:33.643Z,4.8
2022-07-29T21:53:33.611Z,4.8
2022-07-29T21:58:33.608Z,4.9
2022-07-29T22:03:33.630Z,4.9
2022-07-29T22:08:33.601Z,4.9
2022-07-29T22:13:33.615Z,4.9
2022-07-29T22:18:34.177Z,4.9
2022-07-29T22:23:34.674Z,4.9
2022-07-29T22:28:33.685Z,5.4
2022-07-29T22:33:33.604Z,4.9
2022-07-29T22:38:33.638Z,5.2
2022-07-29T22:43:33.665Z,5.2
2022-07-29T22:48:33.633Z,5.4
2022-07-29T22:53:33.679Z,5.4
2022-07-29T22:58:36.838Z,5.4
2022-07-29T23:03:36.703Z,5.6
2022-07-29T23:08:33.664Z,5.6
2022-07-29T23:13:33.640Z,5.6
2022-07-29T23:18:33.697Z,5.6
2022-07-29T23:23:34.665Z,5.5
2022-07-29T23:28:33.641Z,5.5
2022-07-29T23:33:39.675Z,5.5
2022-07-29T23:38:33.794Z,5.3
2022-07-29T23:43:33.654Z,5.5
2022-07-29T23:48:33.656Z,5.6
2022-07-29T23:53:33.626Z,5.7
2022-07-29T23:58:33.679Z,5.7
